Time;durP1;ratioP1;P1;durP2;ratioP2;P2;SDS_P1;SDS_P2;PMS_P1;PMS_P2;Temp;Humidity;BMP_temperature;BMP_pressure;BME280_temperature;BME280_humidity;BME280_pressure;Samples;Min_cycle;Max_cycle;Signal;HPM_P1;HPM_P2
2022/07/19 00:00:14;;;;;;;4.3;3.7;;;;;;;17.08;52.26172;95820.04;;;;
2022/07/19 00:01:17;;;;;;;4.3;3.7;;;;;;;17.08;52.26172;95820.04;;;;
2022/07/19 00:02:17;;;;;;;4.3;3.7;;;;;;;17.08;52.26172;95820.04;;;;
2022/07/19 00:03:18;;;;;;;4.3;3.7;;;;;;;17.08;52.26172;95820.04;;;;
2022/07/19 00:04:18;;;;;;;4.3;3.7;;;;;;;17.08;52.26172;95820.04;;;;
2022/07/19 00:05:19;;;;;;;3.95;3.6;;;;;;;16.86;52.89453;95819.48;;;;
2022/07/19 00:06:20;;;;;;;3.95;3.6;;;;;;;16.86;52.89453;95819.48;;;;
2022/07/19 00:07:20;;;;;;;3.95;3.6;;;;;;;16.86;52.89453;95819.48;;;;
2022/07/19 00:08:21;;;;;;;3.95;3.6;;;;;;;16.86;52.89453;95819.48;;;;
2022/07/19 00:09:21;;;;;;;3.95;3.6;;;;;;;16.86;52.89453;95819.48;;;;
2022/07/19 00:10:23;;;;;;;3.95;3.6;;;;;;;16.86;52.89453;95819.48;;;;
2022/07/19 00:11:23;;;;;;;3.95;3.6;;;;;;;16.86;52.89453;95819.48;;;;
2022/07/19 00:12:24;;;;;;;3.95;3.6;;;;;;;16.86;52.89453;95819.48;;;;
2022/07/19 00:13:24;;;;;;;3.95;3.6;;;;;;;16.86;52.89453;95819.48;;;;
2022/07/19 00:14:25;;;;;;;3.95;3.6;;;;;;;16.86;52.89453;95819.48;;;;
2022/07/19 00:15:25;;;;;;;3.95;3.6;;;;;;;16.86;52.89453;95819.48;;;;
2022/07/19 00:16:26;;;;;;;4.05;3.65;;;;;;;16.75;53.46289;95811.1;;;;
2022/07/19 00:17:26;;;;;;;4.05;3.65;;;;;;;16.75;53.46289;95811.1;;;;
2022/07/19 00:18:27;;;;;;;4.05;3.65;;;;;;;16.75;53.46289;95811.1;;;;
2022/07/19 00:19:28;;;;;;;4.05;3.65;;;;;;;16.75;53.46289;95811.1;;;;
2022/07/19 00:20:28;;;;;;;4.05;3.65;;;;;;;16.75;53.46289;95811.1;;;;
2022/07/19 00:21:29;;;;;;;4.05;3.65;;;;;;;16.75;53.46289;95811.1;;;;
2022/07/19 00:22:29;;;;;;;4.05;3.65;;;;;;;16.75;53.46289;95811.1;;;;
2022/07/19 00:23:30;;;;;;;4.05;3.65;;;;;;;16.75;53.46289;95811.1;;;;
2022/07/19 00:24:30;;;;;;;4.05;3.65;;;;;;;16.75;53.46289;95811.1;;;;
2022/07/19 00:25:31;;;;;;;4.05;3.65;;;;;;;16.75;53.46289;95811.1;;;;
2022/07/19 00:26:31;;;;;;;4.05;3.65;;;;;;;16.75;53.46289;95811.1;;;;
2022/07/19 00:27:32;;;;;;;5.4;3.9;;;;;;;16.53;54.10645;95817.61;;;;
2022/07/19 00:28:33;;;;;;;5.4;3.9;;;;;;;16.53;54.10645;95817.61;;;;
2022/07/19 00:29:33;;;;;;;5.4;3.9;;;;;;;16.53;54.10645;95817.61;;;;
2022/07/19 00:30:34;;;;;;;5.4;3.9;;;;;;;16.53;54.10645;95817.61;;;;
2022/07/19 00:31:34;;;;;;;5.4;3.9;;;;;;;16.53;54.10645;95817.61;;;;
2022/07/19 00:32:35;;;;;;;5.4;3.9;;;;;;;16.53;54.10645;95817.61;;;;
2022/07/19 00:33:36;;;;;;;5.4;3.9;;;;;;;16.53;54.10645;95817.61;;;;
2022/07/19 00:34:36;;;;;;;5.4;3.9;;;;;;;16.53;54.10645;95817.61;;;;
2022/07/19 00:35:37;;;;;;;5.4;3.9;;;;;;;16.53;54.10645;95817.61;;;;
2022/07/19 00:36:38;;;;;;;5.4;3.9;;;;;;;16.53;54.10645;95817.61;;;;
2022/07/19 00:37:39;;;;;;;4.2;3.9;;;;;;;16.41;54.78223;95816.77;;;;
2022/07/19 00:38:39;;;;;;;4.2;3.9;;;;;;;16.41;54.78223;95816.77;;;;
2022/07/19 00:39:40;;;;;;;4.2;3.9;;;;;;;16.41;54.78223;95816.77;;;;
2022/07/19 00:40:41;;;;;;;4.2;3.9;;;;;;;16.41;54.78223;95816.77;;;;
2022/07/19 00:41:42;;;;;;;4.2;3.9;;;;;;;16.41;54.78223;95816.77;;;;
2022/07/19 00:42:44;;;;;;;4.2;3.9;;;;;;;16.41;54.78223;95816.77;;;;
2022/07/19 00:43:44;;;;;;;4.2;3.9;;;;;;;16.41;54.78223;95816.77;;;;
2022/07/19 00:44:45;;;;;;;4.2;3.9;;;;;;;16.41;54.78223;95816.77;;;;
2022/07/19 00:45:46;;;;;;;4.2;3.9;;;;;;;16.41;54.78223;95816.77;;;;
2022/07/19 00:46:46;;;;;;;4.2;3.9;;;;;;;16.41;54.78223;95816.77;;;;
2022/07/19 00:47:47;;;;;;;4.2;3.9;;;;;;;16.41;54.78223;95816.77;;;;
2022/07/19 00:48:48;;;;;;;4.8;3.900001;;;;;;;16.22;55.52539;95814.89;;;;
2022/07/19 00:49:49;;;;;;;4.8;3.900001;;;;;;;16.22;55.52539;95814.89;;;;
2022/07/19 00:50:50;;;;;;;4.8;3.900001;;;;;;;16.22;55.52539;95814.89;;;;
2022/07/19 00:51:52;;;;;;;4.8;3.900001;;;;;;;16.22;55.52539;95814.89;;;;
2022/07/19 00:52:53;;;;;;;4.8;3.900001;;;;;;;16.22;55.52539;95814.89;;;;
2022/07/19 00:53:56;;;;;;;4.8;3.900001;;;;;;;16.22;55.52539;95814.89;;;;
2022/07/19 00:54:58;;;;;;;4.8;3.900001;;;;;;;16.22;55.52539;95814.89;;;;
2022/07/19 00:55:59;;;;;;;4.8;3.900001;;;;;;;16.22;55.52539;95814.89;;;;
2022/07/19 00:57:02;;;;;;;4.8;3.900001;;;;;;;16.22;55.52539;95814.89;;;;
2022/07/19 00:58:05;;;;;;;4.8;3.900001;;;;;;;16.22;55.52539;95814.89;;;;
2022/07/19 00:59:06;;;;;;;5.3;4.400001;;;;;;;16.09;56.05859;95812.36;;;;
2022/07/19 01:00:09;;;;;;;5.3;4.400001;;;;;;;16.09;56.05859;95812.36;;;;
2022/07/19 01:01:10;;;;;;;5.3;4.400001;;;;;;;16.09;56.05859;95812.36;;;;
2022/07/19 01:02:11;;;;;;;5.3;4.400001;;;;;;;16.09;56.05859;95812.36;;;;
2022/07/19 01:03:13;;;;;;;5.3;4.400001;;;;;;;16.09;56.05859;95812.36;;;;
2022/07/19 01:04:13;;;;;;;5.3;4.400001;;;;;;;16.09;56.05859;95812.36;;;;
2022/07/19 01:05:15;;;;;;;5.3;4.400001;;;;;;;16.09;56.05859;95812.36;;;;
2022/07/19 01:06:15;;;;;;;5.3;4.400001;;;;;;;16.09;56.05859;95812.36;;;;
2022/07/19 01:07:16;;;;;;;5.3;4.400001;;;;;;;16.09;56.05859;95812.36;;;;
2022/07/19 01:08:17;;;;;;;5.3;4.400001;;;;;;;16.09;56.05859;95812.36;;;;
2022/07/19 01:09:17;;;;;;;5.3;4.400001;;;;;;;16.09;56.05859;95812.36;;;;
2022/07/19 01:10:18;;;;;;;5.3;4.400001;;;;;;;16.09;56.05859;95812.36;;;;
2022/07/19 01:11:18;;;;;;;5.3;4.400001;;;;;;;16.09;56.05859;95812.36;;;;
2022/07/19 01:12:19;;;;;;;5.3;4.400001;;;;;;;16.09;56.05859;95812.36;;;;
2022/07/19 01:13:20;;;;;;;5.3;4.400001;;;;;;;16.09;56.05859;95812.36;;;;
2022/07/19 01:14:21;;;;;;;5.3;4.400001;;;;;;;16.09;56.05859;95812.36;;;;
2022/07/19 01:15:21;;;;;;;5.3;4.400001;;;;;;;16.09;56.05859;95812.36;;;;
2022/07/19 01:16:24;;;;;;;5.3;4.400001;;;;;;;16.09;56.05859;95812.36;;;;
2022/07/19 01:17:24;;;;;;;5.3;4.400001;;;;;;;16.09;56.05859;95812.36;;;;
2022/07/19 01:18:26;;;;;;;5.3;4.400001;;;;;;;16.09;56.05859;95812.36;;;;
2022/07/19 01:19:26;;;;;;;5.3;4.400001;;;;;;;16.09;56.05859;95812.36;;;;
2022/07/19 01:20:27;;;;;;;5.099999;4.149999;;;;;;;15.82;57.12891;95811.58;;;;
2022/07/19 01:21:27;;;;;;;5.099999;4.149999;;;;;;;15.82;57.12891;95811.58;;;;
2022/07/19 01:22:28;;;;;;;5.099999;4.149999;;;;;;;15.82;57.12891;95811.58;;;;
2022/07/19 01:23:28;;;;;;;5.099999;4.149999;;;;;;;15.82;57.12891;95811.58;;;;
2022/07/19 01:24:29;;;;;;;5.099999;4.149999;;;;;;;15.82;57.12891;95811.58;;;;
2022/07/19 01:25:29;;;;;;;5.099999;4.149999;;;;;;;15.82;57.12891;95811.58;;;;
2022/07/19 01:26:32;;;;;;;5.099999;4.149999;;;;;;;15.82;57.12891;95811.58;;;;
2022/07/19 01:27:33;;;;;;;5.099999;4.149999;;;;;;;15.82;57.12891;95811.58;;;;
2022/07/19 01:28:38;;;;;;;5.099999;4.149999;;;;;;;15.82;57.12891;95811.58;;;;
2022/07/19 01:29:38;;;;;;;5.099999;4.149999;;;;;;;15.82;57.12891;95811.58;;;;
2022/07/19 01:30:39;;;;;;;5.099999;4.149999;;;;;;;15.82;57.12891;95811.58;;;;
2022/07/19 01:31:39;;;;;;;4.5;4.099999;;;;;;;15.66;57.67773;95814.11;;;;
2022/07/19 01:32:40;;;;;;;4.5;4.099999;;;;;;;15.66;57.67773;95814.11;;;;
2022/07/19 01:33:40;;;;;;;4.5;4.099999;;;;;;;15.66;57.67773;95814.11;;;;
2022/07/19 01:34:43;;;;;;;4.5;4.099999;;;;;;;15.66;57.67773;95814.11;;;;
2022/07/19 01:35:43;;;;;;;4.5;4.099999;;;;;;;15.66;57.67773;95814.11;;;;
2022/07/19 01:36:44;;;;;;;4.5;4.099999;;;;;;;15.66;57.67773;95814.11;;;;
2022/07/19 01:37:44;;;;;;;4.5;4.099999;;;;;;;15.66;57.67773;95814.11;;;;
2022/07/19 01:38:45;;;;;;;4.5;4.099999;;;;;;;15.66;57.67773;95814.11;;;;
2022/07/19 01:39:46;;;;;;;4.5;4.099999;;;;;;;15.66;57.67773;95814.11;;;;
2022/07/19 01:40:46;;;;;;;4.5;4.099999;;;;;;;15.66;57.67773;95814.11;;;;
2022/07/19 01:41:47;;;;;;;4.75;4.149999;;;;;;;15.56;58.125;95812.02;;;;
2022/07/19 01:42:47;;;;;;;4.75;4.149999;;;;;;;15.56;58.125;95812.02;;;;
2022/07/19 01:43:48;;;;;;;4.75;4.149999;;;;;;;15.56;58.125;95812.02;;;;
2022/07/19 01:44:49;;;;;;;4.75;4.149999;;;;;;;15.56;58.125;95812.02;;;;
2022/07/19 01:45:49;;;;;;;4.75;4.149999;;;;;;;15.56;58.125;95812.02;;;;
2022/07/19 01:46:50;;;;;;;4.75;4.149999;;;;;;;15.56;58.125;95812.02;;;;
2022/07/19 01:47:50;;;;;;;4.75;4.149999;;;;;;;15.56;58.125;95812.02;;;;
2022/07/19 01:48:51;;;;;;;4.75;4.149999;;;;;;;15.56;58.125;95812.02;;;;
2022/07/19 01:49:51;;;;;;;4.75;4.149999;;;;;;;15.56;58.125;95812.02;;;;
2022/07/19 01:50:52;;;;;;;4.75;4.149999;;;;;;;15.56;58.125;95812.02;;;;
2022/07/19 01:51:52;;;;;;;4.75;4.149999;;;;;;;15.56;58.125;95812.02;;;;
2022/07/19 01:52:53;;;;;;;4.5;4.099999;;;;;;;15.4;58.66016;95817.22;;;;
2022/07/19 01:53:53;;;;;;;4.5;4.099999;;;;;;;15.4;58.66016;95817.22;;;;
2022/07/19 01:54:54;;;;;;;4.5;4.099999;;;;;;;15.4;58.66016;95817.22;;;;
2022/07/19 01:55:54;;;;;;;4.5;4.099999;;;;;;;15.4;58.66016;95817.22;;;;
2022/07/19 01:56:55;;;;;;;4.5;4.099999;;;;;;;15.4;58.66016;95817.22;;;;
2022/07/19 01:57:55;;;;;;;4.5;4.099999;;;;;;;15.4;58.66016;95817.22;;;;
2022/07/19 01:58:56;;;;;;;4.5;4.099999;;;;;;;15.4;58.66016;95817.22;;;;
2022/07/19 01:59:56;;;;;;;4.5;4.099999;;;;;;;15.4;58.66016;95817.22;;;;
2022/07/19 02:00:57;;;;;;;4.5;4.099999;;;;;;;15.4;58.66016;95817.22;;;;
2022/07/19 02:01:57;;;;;;;4.5;4.099999;;;;;;;15.4;58.66016;95817.22;;;;
2022/07/19 02:02:58;;;;;;;4.5;4.1;;;;;;;15.3;59.13867;95803.49;;;;
2022/07/19 02:03:58;;;;;;;4.5;4.1;;;;;;;15.3;59.13867;95803.49;;;;
2022/07/19 02:04:59;;;;;;;4.5;4.1;;;;;;;15.3;59.13867;95803.49;;;;
2022/07/19 02:05:59;;;;;;;4.5;4.1;;;;;;;15.3;59.13867;95803.49;;;;
2022/07/19 02:06:59;;;;;;;4.5;4.1;;;;;;;15.3;59.13867;95803.49;;;;
2022/07/19 02:08:00;;;;;;;4.5;4.1;;;;;;;15.3;59.13867;95803.49;;;;
2022/07/19 02:09:00;;;;;;;4.5;4.1;;;;;;;15.3;59.13867;95803.49;;;;
2022/07/19 02:10:01;;;;;;;4.5;4.1;;;;;;;15.3;59.13867;95803.49;;;;
2022/07/19 02:11:34;;;;;;;4.5;4.1;;;;;;;15.3;59.13867;95803.49;;;;
2022/07/19 02:12:35;;;;;;;4.5;4.1;;;;;;;15.3;59.13867;95803.49;;;;
2022/07/19 02:13:35;;;;;;;5.449999;4.15;;;;;;;15.14;59.5332;95792.15;;;;
2022/07/19 02:14:36;;;;;;;5.449999;4.15;;;;;;;15.14;59.5332;95792.15;;;;
2022/07/19 02:15:37;;;;;;;5.449999;4.15;;;;;;;15.14;59.5332;95792.15;;;;
2022/07/19 02:16:38;;;;;;;5.449999;4.15;;;;;;;15.14;59.5332;95792.15;;;;
2022/07/19 02:17:39;;;;;;;5.449999;4.15;;;;;;;15.14;59.5332;95792.15;;;;
2022/07/19 02:18:39;;;;;;;5.449999;4.15;;;;;;;15.14;59.5332;95792.15;;;;
2022/07/19 02:19:40;;;;;;;5.449999;4.15;;;;;;;15.14;59.5332;95792.15;;;;
2022/07/19 02:20:40;;;;;;;5.449999;4.15;;;;;;;15.14;59.5332;95792.15;;;;
2022/07/19 02:21:41;;;;;;;5.449999;4.15;;;;;;;15.14;59.5332;95792.15;;;;
2022/07/19 02:22:42;;;;;;;5.449999;4.15;;;;;;;15.14;59.5332;95792.15;;;;
2022/07/19 02:23:42;;;;;;;5.449999;4.15;;;;;;;15.14;59.5332;95792.15;;;;
2022/07/19 02:24:43;;;;;;;4.4;4;;;;;;;15.05;59.86914;95786.45;;;;
2022/07/19 02:25:43;;;;;;;4.4;4;;;;;;;15.05;59.86914;95786.45;;;;
2022/07/19 02:26:44;;;;;;;4.4;4;;;;;;;15.05;59.86914;95786.45;;;;
2022/07/19 02:27:44;;;;;;;4.4;4;;;;;;;15.05;59.86914;95786.45;;;;
2022/07/19 02:28:45;;;;;;;4.4;4;;;;;;;15.05;59.86914;95786.45;;;;
2022/07/19 02:29:46;;;;;;;4.4;4;;;;;;;15.05;59.86914;95786.45;;;;
2022/07/19 02:30:46;;;;;;;4.4;4;;;;;;;15.05;59.86914;95786.45;;;;
2022/07/19 02:31:47;;;;;;;4.4;4;;;;;;;15.05;59.86914;95786.45;;;;
2022/07/19 02:32:47;;;;;;;4.4;4;;;;;;;15.05;59.86914;95786.45;;;;
2022/07/19 02:33:48;;;;;;;4.4;4;;;;;;;15.05;59.86914;95786.45;;;;
2022/07/19 02:34:50;;;;;;;4.4;4;;;;;;;15.05;59.86914;95786.45;;;;
2022/07/19 02:35:50;;;;;;;4.4;4;;;;;;;15.05;59.86914;95786.45;;;;
2022/07/19 02:36:50;;;;;;;4.4;4;;;;;;;15.05;59.86914;95786.45;;;;
2022/07/19 02:37:51;;;;;;;4.4;4;;;;;;;15.05;59.86914;95786.45;;;;
2022/07/19 02:38:51;;;;;;;4.4;4;;;;;;;15.05;59.86914;95786.45;;;;
2022/07/19 02:39:52;;;;;;;4.4;4;;;;;;;15.05;59.86914;95786.45;;;;
2022/07/19 02:40:52;;;;;;;4.4;4;;;;;;;15.05;59.86914;95786.45;;;;
2022/07/19 02:41:53;;;;;;;4.4;4;;;;;;;15.05;59.86914;95786.45;;;;
2022/07/19 02:42:53;;;;;;;4.4;4;;;;;;;15.05;59.86914;95786.45;;;;
2022/07/19 02:43:54;;;;;;;4.4;4;;;;;;;15.05;59.86914;95786.45;;;;
2022/07/19 02:44:54;;;;;;;4.4;4;;;;;;;15.05;59.86914;95786.45;;;;
2022/07/19 02:45:55;;;;;;;4.6;4.2;;;;;;;14.77;60.74805;95775.17;;;;
2022/07/19 02:46:55;;;;;;;4.6;4.2;;;;;;;14.77;60.74805;95775.17;;;;
2022/07/19 02:47:56;;;;;;;4.6;4.2;;;;;;;14.77;60.74805;95775.17;;;;
2022/07/19 02:48:56;;;;;;;4.6;4.2;;;;;;;14.77;60.74805;95775.17;;;;
2022/07/19 02:49:57;;;;;;;4.6;4.2;;;;;;;14.77;60.74805;95775.17;;;;
2022/07/19 02:50:57;;;;;;;4.6;4.2;;;;;;;14.77;60.74805;95775.17;;;;
2022/07/19 02:51:58;;;;;;;4.6;4.2;;;;;;;14.77;60.74805;95775.17;;;;
2022/07/19 02:52:58;;;;;;;4.6;4.2;;;;;;;14.77;60.74805;95775.17;;;;
2022/07/19 02:53:59;;;;;;;4.6;4.2;;;;;;;14.77;60.74805;95775.17;;;;
2022/07/19 02:55:00;;;;;;;4.6;4.2;;;;;;;14.77;60.74805;95775.17;;;;
2022/07/19 02:56:00;;;;;;;4.6;4.2;;;;;;;14.77;60.74805;95775.17;;;;
2022/07/19 02:57:01;;;;;;;4.8;4.05;;;;;;;14.6;61.14941;95772.34;;;;
2022/07/19 02:58:01;;;;;;;4.8;4.05;;;;;;;14.6;61.14941;95772.34;;;;
2022/07/19 02:59:03;;;;;;;4.8;4.05;;;;;;;14.6;61.14941;95772.34;;;;
2022/07/19 03:00:03;;;;;;;4.8;4.05;;;;;;;14.6;61.14941;95772.34;;;;
2022/07/19 03:01:07;;;;;;;4.8;4.05;;;;;;;14.6;61.14941;95772.34;;;;
2022/07/19 03:02:08;;;;;;;4.8;4.05;;;;;;;14.6;61.14941;95772.34;;;;
2022/07/19 03:04:13;;;;;;;4.8;4.05;;;;;;;14.6;61.14941;95772.34;;;;
2022/07/19 03:05:13;;;;;;;4.8;4.05;;;;;;;14.6;61.14941;95772.34;;;;
2022/07/19 03:06:14;;;;;;;4.8;4.05;;;;;;;14.6;61.14941;95772.34;;;;
2022/07/19 03:07:16;;;;;;;6.400001;4.599999;;;;;;;14.52;61.54102;95774.91;;;;
2022/07/19 03:08:17;;;;;;;6.400001;4.599999;;;;;;;14.52;61.54102;95774.91;;;;
2022/07/19 03:09:19;;;;;;;6.400001;4.599999;;;;;;;14.52;61.54102;95774.91;;;;
2022/07/19 03:10:20;;;;;;;6.400001;4.599999;;;;;;;14.52;61.54102;95774.91;;;;
2022/07/19 03:11:20;;;;;;;6.400001;4.599999;;;;;;;14.52;61.54102;95774.91;;;;
2022/07/19 03:12:21;;;;;;;6.400001;4.599999;;;;;;;14.52;61.54102;95774.91;;;;
2022/07/19 03:13:22;;;;;;;6.400001;4.599999;;;;;;;14.52;61.54102;95774.91;;;;
2022/07/19 03:14:22;;;;;;;6.400001;4.599999;;;;;;;14.52;61.54102;95774.91;;;;
2022/07/19 03:15:23;;;;;;;6.400001;4.599999;;;;;;;14.52;61.54102;95774.91;;;;
2022/07/19 03:16:23;;;;;;;6.400001;4.599999;;;;;;;14.52;61.54102;95774.91;;;;
2022/07/19 03:17:24;;;;;;;5;4.5;;;;;;;14.37;61.9248;95769.97;;;;
2022/07/19 03:18:24;;;;;;;5;4.5;;;;;;;14.37;61.9248;95769.97;;;;
2022/07/19 03:19:26;;;;;;;5;4.5;;;;;;;14.37;61.9248;95769.97;;;;
2022/07/19 03:20:26;;;;;;;5;4.5;;;;;;;14.37;61.9248;95769.97;;;;
2022/07/19 03:21:27;;;;;;;5;4.5;;;;;;;14.37;61.9248;95769.97;;;;
2022/07/19 03:22:27;;;;;;;5;4.5;;;;;;;14.37;61.9248;95769.97;;;;
2022/07/19 03:23:28;;;;;;;5;4.5;;;;;;;14.37;61.9248;95769.97;;;;
2022/07/19 03:24:31;;;;;;;5;4.5;;;;;;;14.37;61.9248;95769.97;;;;
2022/07/19 03:25:32;;;;;;;5;4.5;;;;;;;14.37;61.9248;95769.97;;;;
2022/07/19 03:26:32;;;;;;;5;4.5;;;;;;;14.37;61.9248;95769.97;;;;
2022/07/19 03:27:33;;;;;;;5;4.5;;;;;;;14.37;61.9248;95769.97;;;;
2022/07/19 03:28:34;;;;;;;4.6;4.099999;;;;;;;14.3;62.25195;95774.14;;;;
2022/07/19 03:29:34;;;;;;;4.6;4.099999;;;;;;;14.3;62.25195;95774.14;;;;
2022/07/19 03:30:35;;;;;;;4.6;4.099999;;;;;;;14.3;62.25195;95774.14;;;;
2022/07/19 03:31:36;;;;;;;4.6;4.099999;;;;;;;14.3;62.25195;95774.14;;;;
2022/07/19 03:32:36;;;;;;;4.6;4.099999;;;;;;;14.3;62.25195;95774.14;;;;
2022/07/19 03:33:37;;;;;;;4.6;4.099999;;;;;;;14.3;62.25195;95774.14;;;;
2022/07/19 03:34:37;;;;;;;4.6;4.099999;;;;;;;14.3;62.25195;95774.14;;;;
2022/07/19 03:35:38;;;;;;;4.6;4.099999;;;;;;;14.3;62.25195;95774.14;;;;
2022/07/19 03:36:38;;;;;;;4.6;4.099999;;;;;;;14.3;62.25195;95774.14;;;;
2022/07/19 03:37:39;;;;;;;4.6;4.099999;;;;;;;14.3;62.25195;95774.14;;;;
2022/07/19 03:38:39;;;;;;;4.6;4.099999;;;;;;;14.3;62.25195;95774.14;;;;
2022/07/19 03:39:40;;;;;;;5.65;4.6;;;;;;;14.16;62.61328;95774.38;;;;
2022/07/19 03:40:40;;;;;;;5.65;4.6;;;;;;;14.16;62.61328;95774.38;;;;
2022/07/19 03:41:41;;;;;;;5.65;4.6;;;;;;;14.16;62.61328;95774.38;;;;
2022/07/19 03:42:42;;;;;;;5.65;4.6;;;;;;;14.16;62.61328;95774.38;;;;
2022/07/19 03:43:42;;;;;;;5.65;4.6;;;;;;;14.16;62.61328;95774.38;;;;
2022/07/19 03:44:43;;;;;;;5.65;4.6;;;;;;;14.16;62.61328;95774.38;;;;
2022/07/19 03:45:43;;;;;;;5.65;4.6;;;;;;;14.16;62.61328;95774.38;;;;
2022/07/19 03:46:45;;;;;;;5.65;4.6;;;;;;;14.16;62.61328;95774.38;;;;
2022/07/19 03:47:45;;;;;;;5.65;4.6;;;;;;;14.16;62.61328;95774.38;;;;
2022/07/19 03:48:46;;;;;;;5.65;4.6;;;;;;;14.16;62.61328;95774.38;;;;
2022/07/19 03:49:47;;;;;;;4.85;4.349999;;;;;;;14.14;63.05664;95776.44;;;;
2022/07/19 03:50:47;;;;;;;4.85;4.349999;;;;;;;14.14;63.05664;95776.44;;;;
2022/07/19 03:51:48;;;;;;;4.85;4.349999;;;;;;;14.14;63.05664;95776.44;;;;
2022/07/19 03:52:48;;;;;;;4.85;4.349999;;;;;;;14.14;63.05664;95776.44;;;;
2022/07/19 03:53:49;;;;;;;4.85;4.349999;;;;;;;14.14;63.05664;95776.44;;;;
2022/07/19 03:54:49;;;;;;;4.85;4.349999;;;;;;;14.14;63.05664;95776.44;;;;
2022/07/19 03:55:50;;;;;;;4.85;4.349999;;;;;;;14.14;63.05664;95776.44;;;;
2022/07/19 03:56:51;;;;;;;4.85;4.349999;;;;;;;14.14;63.05664;95776.44;;;;
2022/07/19 03:57:51;;;;;;;4.85;4.349999;;;;;;;14.14;63.05664;95776.44;;;;
2022/07/19 03:58:52;;;;;;;4.85;4.349999;;;;;;;14.14;63.05664;95776.44;;;;
2022/07/19 03:59:52;;;;;;;4.85;4.349999;;;;;;;14.14;63.05664;95776.44;;;;
2022/07/19 04:00:53;;;;;;;5.8;4.75;;;;;;;14.1;63.2998;95774.05;;;;
2022/07/19 04:01:54;;;;;;;5.8;4.75;;;;;;;14.1;63.2998;95774.05;;;;
2022/07/19 04:02:55;;;;;;;5.8;4.75;;;;;;;14.1;63.2998;95774.05;;;;
2022/07/19 04:03:55;;;;;;;5.8;4.75;;;;;;;14.1;63.2998;95774.05;;;;
2022/07/19 04:04:56;;;;;;;5.8;4.75;;;;;;;14.1;63.2998;95774.05;;;;
2022/07/19 04:05:56;;;;;;;5.8;4.75;;;;;;;14.1;63.2998;95774.05;;;;
2022/07/19 04:06:57;;;;;;;5.8;4.75;;;;;;;14.1;63.2998;95774.05;;;;
2022/07/19 04:07:57;;;;;;;5.8;4.75;;;;;;;14.1;63.2998;95774.05;;;;
2022/07/19 04:08:58;;;;;;;5.8;4.75;;;;;;;14.1;63.2998;95774.05;;;;
2022/07/19 04:09:58;;;;;;;5.8;4.75;;;;;;;14.1;63.2998;95774.05;;;;
2022/07/19 04:10:59;;;;;;;10.1;5;;;;;;;14.15;63.52637;95772.36;;;;
2022/07/19 04:11:59;;;;;;;10.1;5;;;;;;;14.15;63.52637;95772.36;;;;
2022/07/19 04:13:00;;;;;;;10.1;5;;;;;;;14.15;63.52637;95772.36;;;;
2022/07/19 04:14:00;;;;;;;10.1;5;;;;;;;14.15;63.52637;95772.36;;;;
2022/07/19 04:15:01;;;;;;;10.1;5;;;;;;;14.15;63.52637;95772.36;;;;
2022/07/19 04:16:02;;;;;;;10.1;5;;;;;;;14.15;63.52637;95772.36;;;;
2022/07/19 04:17:04;;;;;;;10.1;5;;;;;;;14.15;63.52637;95772.36;;;;
2022/07/19 04:18:04;;;;;;;10.1;5;;;;;;;14.15;63.52637;95772.36;;;;
2022/07/19 04:19:05;;;;;;;10.1;5;;;;;;;14.15;63.52637;95772.36;;;;
2022/07/19 04:20:06;;;;;;;10.1;5;;;;;;;14.15;63.52637;95772.36;;;;
2022/07/19 04:21:07;;;;;;;10.1;5;;;;;;;14.15;63.52637;95772.36;;;;
2022/07/19 04:22:08;;;;;;;6.550001;4.95;;;;;;;14.15;63.73242;95772.36;;;;
2022/07/19 04:23:08;;;;;;;6.550001;4.95;;;;;;;14.15;63.73242;95772.36;;;;
2022/07/19 04:24:09;;;;;;;6.550001;4.95;;;;;;;14.15;63.73242;95772.36;;;;
2022/07/19 04:25:09;;;;;;;6.550001;4.95;;;;;;;14.15;63.73242;95772.36;;;;
2022/07/19 04:26:10;;;;;;;6.550001;4.95;;;;;;;14.15;63.73242;95772.36;;;;
2022/07/19 04:27:10;;;;;;;6.550001;4.95;;;;;;;14.15;63.73242;95772.36;;;;
2022/07/19 04:28:11;;;;;;;6.550001;4.95;;;;;;;14.15;63.73242;95772.36;;;;
2022/07/19 04:29:11;;;;;;;6.550001;4.95;;;;;;;14.15;63.73242;95772.36;;;;
2022/07/19 04:30:12;;;;;;;6.550001;4.95;;;;;;;14.15;63.73242;95772.36;;;;
2022/07/19 04:31:14;;;;;;;6.550001;4.95;;;;;;;14.15;63.73242;95772.36;;;;
2022/07/19 04:32:15;;;;;;;5.849999;5.2;;;;;;;14.26;63.94531;95775.63;;;;
2022/07/19 04:33:15;;;;;;;5.849999;5.2;;;;;;;14.26;63.94531;95775.63;;;;
2022/07/19 04:34:18;;;;;;;5.849999;5.2;;;;;;;14.26;63.94531;95775.63;;;;
2022/07/19 04:35:18;;;;;;;5.849999;5.2;;;;;;;14.26;63.94531;95775.63;;;;
2022/07/19 04:36:19;;;;;;;5.849999;5.2;;;;;;;14.26;63.94531;95775.63;;;;
2022/07/19 04:37:19;;;;;;;5.849999;5.2;;;;;;;14.26;63.94531;95775.63;;;;
2022/07/19 04:38:20;;;;;;;5.849999;5.2;;;;;;;14.26;63.94531;95775.63;;;;
2022/07/19 04:39:20;;;;;;;5.849999;5.2;;;;;;;14.26;63.94531;95775.63;;;;
2022/07/19 04:40:21;;;;;;;5.849999;5.2;;;;;;;14.26;63.94531;95775.63;;;;
2022/07/19 04:41:21;;;;;;;5.849999;5.2;;;;;;;14.26;63.94531;95775.63;;;;
2022/07/19 04:42:22;;;;;;;5.849999;5.2;;;;;;;14.26;63.94531;95775.63;;;;
2022/07/19 04:43:22;;;;;;;5.299999;4.8;;;;;;;14.37;64.16699;95776.72;;;;
2022/07/19 04:44:23;;;;;;;5.299999;4.8;;;;;;;14.37;64.16699;95776.72;;;;
2022/07/19 04:45:23;;;;;;;5.299999;4.8;;;;;;;14.37;64.16699;95776.72;;;;
2022/07/19 04:46:24;;;;;;;5.299999;4.8;;;;;;;14.37;64.16699;95776.72;;;;
2022/07/19 04:47:25;;;;;;;5.299999;4.8;;;;;;;14.37;64.16699;95776.72;;;;
2022/07/19 04:48:25;;;;;;;5.299999;4.8;;;;;;;14.37;64.16699;95776.72;;;;
2022/07/19 04:49:26;;;;;;;5.299999;4.8;;;;;;;14.37;64.16699;95776.72;;;;
2022/07/19 04:50:26;;;;;;;5.299999;4.8;;;;;;;14.37;64.16699;95776.72;;;;
2022/07/19 04:51:27;;;;;;;5.299999;4.8;;;;;;;14.37;64.16699;95776.72;;;;
2022/07/19 04:52:27;;;;;;;5.299999;4.8;;;;;;;14.37;64.16699;95776.72;;;;
2022/07/19 04:53:28;;;;;;;6.4;5.15;;;;;;;14.68;64.16797;95768.55;;;;
2022/07/19 04:54:28;;;;;;;6.4;5.15;;;;;;;14.68;64.16797;95768.55;;;;
2022/07/19 04:55:29;;;;;;;6.4;5.15;;;;;;;14.68;64.16797;95768.55;;;;
2022/07/19 04:56:29;;;;;;;6.4;5.15;;;;;;;14.68;64.16797;95768.55;;;;
2022/07/19 04:57:30;;;;;;;6.4;5.15;;;;;;;14.68;64.16797;95768.55;;;;
2022/07/19 04:58:31;;;;;;;6.4;5.15;;;;;;;14.68;64.16797;95768.55;;;;
2022/07/19 04:59:31;;;;;;;6.4;5.15;;;;;;;14.68;64.16797;95768.55;;;;
2022/07/19 05:00:31;;;;;;;6.4;5.15;;;;;;;14.68;64.16797;95768.55;;;;
2022/07/19 05:01:32;;;;;;;6.4;5.15;;;;;;;14.68;64.16797;95768.55;;;;
2022/07/19 05:02:33;;;;;;;6.4;5.15;;;;;;;14.68;64.16797;95768.55;;;;
2022/07/19 05:03:33;;;;;;;6.4;5.15;;;;;;;14.68;64.16797;95768.55;;;;
2022/07/19 05:04:33;;;;;;;7.3;4.849999;;;;;;;14.96;64.10156;95770.9;;;;
2022/07/19 05:05:34;;;;;;;7.3;4.849999;;;;;;;14.96;64.10156;95770.9;;;;
2022/07/19 05:06:34;;;;;;;7.3;4.849999;;;;;;;14.96;64.10156;95770.9;;;;
2022/07/19 05:07:35;;;;;;;7.3;4.849999;;;;;;;14.96;64.10156;95770.9;;;;
2022/07/19 05:08:36;;;;;;;7.3;4.849999;;;;;;;14.96;64.10156;95770.9;;;;
2022/07/19 05:09:36;;;;;;;7.3;4.849999;;;;;;;14.96;64.10156;95770.9;;;;
2022/07/19 05:10:37;;;;;;;7.3;4.849999;;;;;;;14.96;64.10156;95770.9;;;;
2022/07/19 05:11:37;;;;;;;7.3;4.849999;;;;;;;14.96;64.10156;95770.9;;;;
2022/07/19 05:12:38;;;;;;;7.3;4.849999;;;;;;;14.96;64.10156;95770.9;;;;
2022/07/19 05:13:38;;;;;;;7.3;4.849999;;;;;;;14.96;64.10156;95770.9;;;;
2022/07/19 05:14:39;;;;;;;7.3;4.849999;;;;;;;14.96;64.10156;95770.9;;;;
2022/07/19 05:15:39;;;;;;;5.45;4.95;;;;;;;15.41;63.93652;95771.7;;;;
2022/07/19 05:16:40;;;;;;;5.45;4.95;;;;;;;15.41;63.93652;95771.7;;;;
2022/07/19 05:17:41;;;;;;;5.45;4.95;;;;;;;15.41;63.93652;95771.7;;;;
2022/07/19 05:18:42;;;;;;;5.45;4.95;;;;;;;15.41;63.93652;95771.7;;;;
2022/07/19 05:19:43;;;;;;;5.45;4.95;;;;;;;15.41;63.93652;95771.7;;;;
2022/07/19 05:20:43;;;;;;;5.45;4.95;;;;;;;15.41;63.93652;95771.7;;;;
2022/07/19 05:21:44;;;;;;;5.45;4.95;;;;;;;15.41;63.93652;95771.7;;;;
2022/07/19 05:22:45;;;;;;;5.45;4.95;;;;;;;15.41;63.93652;95771.7;;;;
2022/07/19 05:23:46;;;;;;;5.45;4.95;;;;;;;15.41;63.93652;95771.7;;;;
2022/07/19 05:24:46;;;;;;;5.45;4.95;;;;;;;15.41;63.93652;95771.7;;;;
2022/07/19 05:25:46;;;;;;;5.1;4.299999;;;;;;;15.92;63.50684;95766.63;;;;
2022/07/19 05:26:47;;;;;;;5.1;4.299999;;;;;;;15.92;63.50684;95766.63;;;;
2022/07/19 05:27:48;;;;;;;5.1;4.299999;;;;;;;15.92;63.50684;95766.63;;;;
2022/07/19 05:28:48;;;;;;;5.1;4.299999;;;;;;;15.92;63.50684;95766.63;;;;
2022/07/19 05:29:48;;;;;;;5.1;4.299999;;;;;;;15.92;63.50684;95766.63;;;;
2022/07/19 05:30:49;;;;;;;5.1;4.299999;;;;;;;15.92;63.50684;95766.63;;;;
2022/07/19 05:31:49;;;;;;;5.1;4.299999;;;;;;;15.92;63.50684;95766.63;;;;
2022/07/19 05:32:50;;;;;;;5.1;4.299999;;;;;;;15.92;63.50684;95766.63;;;;
2022/07/19 05:33:50;;;;;;;5.1;4.299999;;;;;;;15.92;63.50684;95766.63;;;;
2022/07/19 05:34:51;;;;;;;5.1;4.299999;;;;;;;15.92;63.50684;95766.63;;;;
2022/07/19 05:35:52;;;;;;;5.1;4.299999;;;;;;;15.92;63.50684;95766.63;;;;
2022/07/19 05:36:52;;;;;;;4.2;3.75;;;;;;;16.62;62.94043;95766.8;;;;
2022/07/19 05:37:53;;;;;;;4.2;3.75;;;;;;;16.62;62.94043;95766.8;;;;
2022/07/19 05:38:54;;;;;;;4.2;3.75;;;;;;;16.62;62.94043;95766.8;;;;
2022/07/19 05:39:54;;;;;;;4.2;3.75;;;;;;;16.62;62.94043;95766.8;;;;
2022/07/19 05:40:55;;;;;;;4.2;3.75;;;;;;;16.62;62.94043;95766.8;;;;